LFOB 181530Z AUTO 30011KT 270V330 CAVOK 28/15 Q1013 TEMPO 4000 SHRA BKN040TCU

ElémentsDécodage
LFOB Station météo située sur l'aérodrome de BEAUVAIS Tillé
181530Z émis le 18 du mois à 15h30 UTC
AUTO Bulletin édité par un automate
30011KT vent du 300°, 11 noeuds
270V330 vent de direction variable entre 270° et 330°
CAVOK Ceiling And Visibility OK
- Visibilité de 10 Km ou plus
- Pas de nuage au-dessous de 1500m ou au-dessous de l'altitude minimale du secteur la plus élevée (si>1500m) et absence de CB
- pas de temps présent significatif
28/15 température 28°C, point de rosée 15°C
 soit une humidité relative de 45%
Q1013 la pression au niveau de la mer (QNH) est de 1013 hPa
TEMPO fluctuation temporaire prévue
4000 visibilité horizontale de 4000 mètres
SHRA averse(s) de pluie
BKN040TCU nuages morcelés (5/8 à 7/8) à 4000 pieds
 présence de cumulus congestus